23. Mai 2022

Uhrzeit Code Wetter Temp. Sichtweite Wolken Wind METAR/SPECI
19:30
V
0 °C 10 km+ 4.800 ft 310°   310° 8 kt METAR LFCR 231730Z AUTO 31008KT 9999 SCT031 BKN048 BKN054 ///// Q1011 NOSIG
19:00
V
0 °C 10 km+ - 310°   310° 7 kt METAR LFCR 231700Z AUTO 31007KT 280V350 9999 FEW027 ///// Q1011 NOSIG
18:30
V
18 °C 10 km+ 4.400 ft 320°   320° 7 kt METAR LFCR 231630Z AUTO 32007KT 280V010 9999 SCT030 BKN044 18/12 Q1011 NOSIG
18:00
M
16 °C 10 km+ 2.900 ft 300°   300° 11 kt METAR LFCR 231600Z AUTO 30011KT 9999 BKN029 OVC036 16/12 Q1011 NOSIG
17:30
M
17 °C 10 km+ 2.000 ft 300°   300° 9 kt METAR LFCR 231530Z AUTO 30009KT 9999 BKN020 BKN026 OVC033 17/12 Q1011 NOSIG
17:00
M
16 °C 10 km+ 2.100 ft 290°   290° 11 kt METAR LFCR 231500Z AUTO 29011KT 9999 BKN021 OVC028 16/12 Q1011 NOSIG
16:30
M
18 °C 10 km+ 1.700 ft 270°   270° 12 kt METAR LFCR 231430Z AUTO 27012KT 9999 BKN017 OVC025 18/13 Q1011 NOSIG
16:00
M
17 °C 10 km+ 1.500 ft 260°   260° 11 kt METAR LFCR 231400Z AUTO 26011KT 9999 FEW010 BKN015 OVC023 17/13 Q1011 TEMPO 4000 -RADZ BKN005
15:30
I
16 °C 9 km 600 ft 270°   270° 9 kt METAR LFCR 231330Z AUTO 27009KT 9000 BKN006 BKN011 BKN017 16/15 Q1011 BECMG BKN035
15:00
M
16 °C 10 km+ 1.500 ft 260°   260° 9 kt METAR LFCR 231300Z AUTO 26009KT 9999 BKN015 BKN021 OVC027 16/13 Q1011 NOSIG
14:30
M
16 °C 10 km+ 1.300 ft 260°   260° 8 kt METAR LFCR 231230Z AUTO 26008KT 240V300 9999 BKN013 OVC038 16/13 Q1011 BECMG SCT018 BKN035
14:00
M
16 °C 10 km+ 1.400 ft 250°   250° 10 kt METAR LFCR 231200Z AUTO 25010KT 210V270 9999 BKN014 BKN021 OVC026 16/13 Q1011 BECMG SCT018 BKN035
13:30
M
15 °C 10 km+ 1.200 ft 260°   260° 12 kt METAR LFCR 231130Z AUTO 26012KT 9999 BKN012 OVC021 15/13 Q1011 BECMG SCT018 BKN035
13:00
M
15 °C 10 km+ 1.000 ft 250°   250° 14 kt METAR LFCR 231100Z AUTO 25014KT 9999 OVC010 15/13 Q1011 BECMG SCT018 BKN035
12:30
M
16 °C 10 km+ 1.400 ft 250°   250° 10 kt METAR LFCR 231030Z AUTO 25010KT 9999 BKN014 OVC019 16/13 Q1011 BECMG SCT018 BKN035
12:00
M
16 °C 10 km+ 1.300 ft 260°   260° 12 kt METAR LFCR 231000Z AUTO 26012KT 9999 BKN013 OVC018 16/13 Q1011 BECMG SCT018 BKN035
11:30
M
16 °C 10 km+ 1.000 ft 260°   260° 11 kt METAR LFCR 230930Z AUTO 26011KT 220V280 9999 SCT006 BKN010 OVC014 16/14 Q1011 BECMG SCT018 BKN035
11:00
M
15 °C 10 km+ 1.000 ft 260°   260° 10 kt METAR LFCR 230900Z AUTO 26010KT 9999 OVC010/// ///CB 15/14 Q1011 BECMG SCT018 BKN035
10:30
I
16 °C 10 km+ 800 ft 230°   230° 10 kt METAR LFCR 230830Z AUTO 23010KT 9999 OVC008/// //////CB 16/14 Q1011 BECMG SCT018 BKN035
10:00
M
15 °C 10 km+ 1.000 ft 260°   260° 8 kt METAR LFCR 230800Z AUTO 26008KT 9999 -RA BKN010/// OVC014/// //////CB 15/14 Q1010 TEMPO 4000 -RA BECMG SCT018 BKN035
09:30
I
16 °C 10 km+ 900 ft 250°   250° 8 kt METAR LFCR 230730Z AUTO 25008KT 200V270 9999 BKN009/// BKN014/// OVC025/// //////CB 16/14 Q1011 TEMPO 4000 -RA BECMG SCT018 BKN035
09:00
I
16 °C 10 km+ 700 ft 230°   230° 9 kt METAR LFCR 230700Z AUTO 23009KT 9999 BKN007/// BKN011/// OVC031/// //////CB 16/14 Q1010 TEMPO 4000 -RA SCT006 BKN020 BKN050CB
08:30
I
16 °C 10 km+ 800 ft 250°   250° 12 kt METAR LFCR 230630Z AUTO 25012KT 9999 BKN008/// OVC013/// //////CB 16/14 Q1010 TEMPO 4000 -RA SCT006 BKN020 BKN050CB
08:00
M
16 °C 10 km+ 1.000 ft 260°   260° 10 kt METAR LFCR 230600Z AUTO 26010KT 9999 BKN010/// OVC058/// //////CB 16/15 Q1010 TEMPO 4000 -RA SCT006 BKN020 BKN050CB
07:30
M
17 °C 10 km+ 2.300 ft 230°   230° 8 kt METAR LFCR 230530Z AUTO 23008KT 9999 BKN023/// OVC058/// //////CB 17/14 Q1010 TEMPO 4000 SHRA BECMG BKN006 OVC012
07:00
V
16 °C 10 km+ 14.000 ft 230°   230° 6 kt METAR LFCR 230500Z AUTO 23006KT 9999 FEW022 SCT080 BKN140 16/15 Q1010 TEMPO 4000 SHRA SCT020TCU
06:30
V
16 °C 10 km+ - Var   Var 2 kt METAR LFCR 230430Z AUTO VRB02KT CAVOK 16/14 Q1009 TEMPO 4000 SHRA SCT020TCU BECMG 27012KT
06:00
V
17 °C 10 km+ - 360°   360° 3 kt METAR LFCR 230400Z AUTO 36003KT 320V060 CAVOK 17/14 Q1009 TEMPO 4000 SHRA SCT020TCU
05:30
V
16 °C 10 km+ - 290°   290° 5 kt METAR LFCR 230330Z AUTO 29005KT CAVOK 16/14 Q1010 TEMPO 4000 SHRA SCT020TCU
05:00
V
18 °C 10 km+ - 280°   280° 7 kt METAR LFCR 230300Z AUTO 28007KT 240V300 9999 //////TCU 18/15 Q1010 TEMPO 4000 SHRA SCT050CB
04:30
V
19 °C 10 km+ - 250°   250° 8 kt METAR LFCR 230230Z AUTO 25008KT CAVOK 19/14 Q1011 TEMPO 4000 SHRA SCT020TCU
04:00
V
20 °C 10 km+ - 260°   260° 13 kt METAR LFCR 230200Z AUTO 26013KT CAVOK 20/14 Q1010 TEMPO 4000 SHRA SCT050CB BECMG 20010KT
03:30
V
21 °C 10 km+ - 250°   250° 10 kt METAR LFCR 230130Z AUTO 25010KT CAVOK 21/13 Q1010 TEMPO 4000 SHRA SCT050CB
03:00
V
21 °C 10 km+ - 250°   250° 9 kt METAR LFCR 230100Z AUTO 25009KT CAVOK 21/13 Q1010 TEMPO 4000 SHRA SCT050CB
02:30
V
21 °C 10 km+ - 250°   250° 7 kt METAR LFCR 230030Z AUTO 25007KT 230V290 CAVOK 21/13 Q1010 TEMPO 4000 SHRA SCT050CB
02:00
V
21 °C 10 km+ - Var   Var 2 kt METAR LFCR 230000Z AUTO VRB02KT CAVOK 21/14 Q1009 TEMPO 4000 SHRA SCT050CB
01:30
V
21 °C 10 km+ - 280°   280° 5 kt METAR LFCR 222330Z AUTO 28005KT CAVOK 21/15 Q1010 TEMPO 4000 SHRA SCT050CB
01:00
V
22 °C 10 km+ - 270°   270° 6 kt METAR LFCR 222300Z AUTO 27006KT 230V300 9999 //////TCU 22/15 Q1010 TEMPO 30020G35KT 4000 SHRA SCT050CB
00:30
V
23 °C 10 km+ - 280°   280° 12 kt METAR LFCR 222230Z AUTO 28012KT 9999 ///TCU 23/16 Q1010 TEMPO 30020G35KT 4000 SHRA SCT050CB
00:00
V
24 °C 10 km+ - 270°   270° 6 kt METAR LFCR 222200Z AUTO 27006KT 9999 //////CB 24/15 Q1010 TEMPO 30020G35KT 4000 TSRA

22. Mai 2022

Uhrzeit Code Wetter Temp. Sichtweite Wolken Wind METAR/SPECI
23:30
V
24 °C 10 km+ - 300°   300° 8 kt METAR LFCR 222130Z AUTO 30008KT 270V340 9999 ///CB 24/15 Q1010 TEMPO 30020G35KT 4000 TSRA
23:00
V
30 °C 10 km+ - 220°   220° 16 36 kt METAR LFCR 222100Z AUTO 22016G36KT 170V310 9999 ///TCU 30/04 Q1009 TEMPO 4000 TSRA SCT030TCU SCT050CB
22:30
V
25 °C 10 km+ - 180°   180° 6 kt METAR LFCR 222030Z AUTO 18006KT 120V270 CAVOK 25/15 Q1009 TEMPO 30020G35KT 4000 TSRA SCT030TCU SCT050CB
22:00
V
25 °C 10 km+ - 130°   130° 6 kt METAR LFCR 222000Z AUTO 13006KT CAVOK 25/19 Q1009 TEMPO 30020G35KT 4000 TSRA SCT030TCU SCT050CB
21:30
V
26 °C 10 km+ - 170°   170° 10 kt METAR LFCR 221930Z AUTO 17010KT CAVOK 26/19 Q1009 TEMPO 30020G35KT 4000 TSRA SCT030TCU SCT050CB
21:00
V
25 °C 10 km+ - 150°   150° 7 kt METAR LFCR 221900Z AUTO 15007KT CAVOK 25/18 Q1009 TEMPO 30020G35KT 4000 TSRA SCT030TCU SCT050CB
20:30
V
26 °C 10 km+ - Var   Var 3 kt METAR LFCR 221830Z AUTO VRB03KT CAVOK 26/14 Q1010 TEMPO 30020G35KT 4000 TSRA SCT030TCU SCT050CB
20:00
V
27 °C 10 km+ - 210°   210° 4 kt METAR LFCR 221800Z AUTO 21004KT 170V260 CAVOK 27/14 Q1010 TEMPO 30020G35KT 4000 TSRA SCT030TCU SCT050CB
19:30
V
27 °C 10 km+ - 160°   160° 6 kt METAR LFCR 221730Z AUTO 16006KT CAVOK 27/16 Q1009 TEMPO 30020G35KT 4000 TSRA SCT030TCU SCT050CB
19:00
V
28 °C 10 km+ - Var   Var 2 kt METAR LFCR 221700Z AUTO VRB02KT CAVOK 28/13 Q1009 TEMPO 30020G35KT 4000 TSRA SCT030TCU SCT050CB
18:30
V
28 °C 10 km+ - 220°   220° 8 kt METAR LFCR 221630Z AUTO 22008KT CAVOK 28/17 Q1010 TEMPO 30020G35KT 4000 TSRA SCT030TCU SCT050CB
18:00
V
29 °C 10 km+ - 210°   210° 7 kt METAR LFCR 221600Z AUTO 21007KT 170V240 CAVOK 29/17 Q1011 TEMPO 30020G35KT 4000 TSRA SCT030TCU SCT050CB
17:30
V
31 °C 10 km+ - 200°   200° 7 kt METAR LFCR 221530Z AUTO 20007KT 160V220 CAVOK 31/15 Q1011 TEMPO 30020G35KT 4000 TSRA SCT030TCU SCT050CB
17:00
V
31 °C 10 km+ - 190°   190° 7 kt METAR LFCR 221500Z AUTO 19007KT CAVOK 31/14 Q1010 NOSIG
16:30
V
31 °C 10 km+ - 190°   190° 4 kt METAR LFCR 221430Z AUTO 19004KT 150V220 CAVOK 31/14 Q1011 NOSIG
16:00
V
30 °C 10 km+ - 230°   230° 8 kt METAR LFCR 221400Z AUTO 23008KT CAVOK 30/15 Q1011 NOSIG
15:30
V
33 °C 10 km+ - 210°   210° 6 kt METAR LFCR 221330Z AUTO 21006KT 150V230 CAVOK 33/15 Q1011 NOSIG
15:00
V
32 °C 10 km+ - 160°   160° 6 kt METAR LFCR 221300Z AUTO 16006KT 100V210 CAVOK 32/15 Q1011 NOSIG
14:30
V
32 °C 10 km+ - 170°   170° 5 kt METAR LFCR 221230Z AUTO 17005KT 120V220 CAVOK 32/15 Q1012 NOSIG
14:00
V
31 °C 10 km+ - Var   Var 6 kt METAR LFCR 221200Z AUTO VRB06KT CAVOK 31/16 Q1012 NOSIG
13:30
V
30 °C 10 km+ - 250°   250° 6 kt METAR LFCR 221130Z AUTO 25006KT 210V280 CAVOK 30/15 Q1012 NOSIG
13:00
V
30 °C 10 km+ - 220°   220° 6 kt METAR LFCR 221100Z AUTO 22006KT 160V260 CAVOK 30/14 Q1013 NOSIG
12:30
V
29 °C 10 km+ - 240°   240° 4 kt METAR LFCR 221030Z AUTO 24004KT 150V300 CAVOK 29/12 Q1013 NOSIG
12:00
V
29 °C 10 km+ - Var   Var 3 kt METAR LFCR 221000Z AUTO VRB03KT CAVOK 29/12 Q1013 NOSIG
11:30
V
28 °C 10 km+ - Var   Var 2 kt METAR LFCR 220930Z AUTO VRB02KT CAVOK 28/10 Q1013 NOSIG
11:00
V
27 °C 10 km+ - 080°   080° 5 kt METAR LFCR 220900Z AUTO 08005KT CAVOK 27/13 Q1013 NOSIG
10:30
V
25 °C 10 km+ - Var   Var 2 kt METAR LFCR 220830Z AUTO VRB02KT CAVOK 25/15 Q1014 NOSIG
10:00
V
24 °C 10 km+ - 330°   330° 3 kt METAR LFCR 220800Z AUTO 33003KT 300V010 CAVOK 24/16 Q1014 NOSIG
09:30
V
24 °C 10 km+ - Var   Var 2 kt METAR LFCR 220730Z AUTO VRB02KT CAVOK 24/14 Q1014 NOSIG
09:00
V
0 °C 10 km+ - Var   Var 3 kt METAR LFCR 220700Z AUTO VRB03KT CAVOK ///// Q1015 NOSIG
08:30
V
20 °C 10 km+ - 130°   130° 5 kt METAR LFCR 220630Z AUTO 13005KT CAVOK 20/13 Q1015 NOSIG
08:00
V
18 °C 10 km+ - 140°   140° 4 kt METAR LFCR 220600Z AUTO 14004KT CAVOK 18/14 Q1015 NOSIG
07:30
V
17 °C 10 km+ - 150°   150° 3 kt METAR LFCR 220530Z AUTO 15003KT CAVOK 17/14 Q1015 NOSIG
07:00
V
16 °C 10 km+ - 110°   110° 3 kt METAR LFCR 220500Z AUTO 11003KT CAVOK 16/14 Q1015 NOSIG
06:30
V
17 °C 10 km+ - Var   Var 2 kt METAR LFCR 220430Z AUTO VRB02KT CAVOK 17/14 Q1015 NOSIG
06:00
V
18 °C 10 km+ - 360°   360° 4 kt METAR LFCR 220400Z AUTO 36004KT CAVOK 18/14 Q1015 NOSIG
05:30
V
16 °C 10 km+ - 280°   280° 2 kt METAR LFCR 220330Z AUTO 28002KT CAVOK 16/14 Q1015 NOSIG
05:00
V
16 °C 10 km+ - 140°   140° 4 kt METAR LFCR 220300Z AUTO 14004KT CAVOK 16/14 Q1015 NOSIG
04:30
V
16 °C 10 km+ - 150°   150° 3 kt METAR LFCR 220230Z AUTO 15003KT CAVOK 16/14 Q1015 NOSIG
04:00
V
16 °C 10 km+ - 160°   160° 2 kt METAR LFCR 220200Z AUTO 16002KT CAVOK 16/14 Q1015 NOSIG
03:30
V
18 °C 10 km+ - 130°   130° 1 kt METAR LFCR 220130Z AUTO 13001KT CAVOK 18/14 Q1015 NOSIG
03:00
V
18 °C 10 km+ - Var   Var 2 kt METAR LFCR 220100Z AUTO VRB02KT CAVOK 18/15 Q1016 NOSIG
02:30
V
20 °C 10 km+ - 090°   090° 6 kt METAR LFCR 220030Z AUTO 09006KT CAVOK 20/15 Q1016 NOSIG
02:00
V
20 °C 10 km+ - 090°   090° 3 kt METAR LFCR 220000Z AUTO 09003KT CAVOK 20/16 Q1016 NOSIG
01:30
V
19 °C 10 km+ - Var   Var 2 kt METAR LFCR 212330Z AUTO VRB02KT CAVOK 19/15 Q1017 NOSIG
01:00
V
19 °C 10 km+ - 160°   160° 6 kt METAR LFCR 212300Z AUTO 16006KT CAVOK 19/15 Q1017 NOSIG
00:30
V
22 °C 10 km+ - 110°   110° 5 kt METAR LFCR 212230Z AUTO 11005KT CAVOK 22/15 Q1017 NOSIG
00:00
V
22 °C 10 km+ - 140°   140° 5 kt METAR LFCR 212200Z AUTO 14005KT CAVOK 22/16 Q1018 NOSIG

21. Mai 2022

Uhrzeit Code Wetter Temp. Sichtweite Wolken Wind METAR/SPECI
23:30
V
22 °C 10 km+ - Var   Var 3 kt METAR LFCR 212130Z AUTO VRB03KT CAVOK 22/16 Q1018 NOSIG
23:00
V
22 °C 10 km+ - 140°   140° 5 kt METAR LFCR 212100Z AUTO 14005KT CAVOK 22/16 Q1018 NOSIG
22:30
V
22 °C 10 km+ - 150°   150° 4 kt METAR LFCR 212030Z AUTO 15004KT CAVOK 22/16 Q1018 NOSIG
22:00
V
24 °C 10 km+ - 140°   140° 6 kt METAR LFCR 212000Z AUTO 14006KT CAVOK 24/17 Q1018 NOSIG
21:30
V
24 °C 10 km+ - 170°   170° 3 kt METAR LFCR 211930Z AUTO 17003KT CAVOK 24/18 Q1018 NOSIG
21:00
V
26 °C 10 km+ - 150°   150° 2 kt METAR LFCR 211900Z AUTO 15002KT CAVOK 26/19 Q1018 TEMPO 28010KT
20:30
V
27 °C 10 km+ - 310°   310° 3 kt METAR LFCR 211830Z AUTO 31003KT CAVOK 27/18 Q1018 NOSIG
20:00
V
28 °C 10 km+ - 340°   340° 3 kt METAR LFCR 211800Z AUTO 34003KT CAVOK 28/19 Q1018 TEMPO 28010KT
19:30
V
29 °C 10 km+ - 300°   300° 7 kt METAR LFCR 211730Z AUTO 30007KT CAVOK 29/19 Q1018 NOSIG
19:00
V
30 °C 10 km+ - 300°   300° 8 kt METAR LFCR 211700Z AUTO 30008KT CAVOK 30/18 Q1018 NOSIG
18:30
V
32 °C 10 km+ - 250°   250° 8 kt METAR LFCR 211630Z AUTO 25008KT 220V280 CAVOK 32/15 Q1018 NOSIG
18:00
V
33 °C 10 km+ - 240°   240° 8 kt METAR LFCR 211600Z AUTO 24008KT 200V270 9999 // NSC 33/14 Q1018
17:30
V
33 °C 10 km+ - 220°   220° 5 kt METAR LFCR 211530Z AUTO 22005KT 170V260 9999 // NSC 33/12 Q1018
17:00
V
33 °C 10 km+ - 180°   180° 6 kt METAR LFCR 211500Z AUTO 18006KT 140V240 9999 // NSC 33/13 Q1018
Ältere Daten

Laden Sie unsere App herunter

Einfacher Zugriff auf das gesamte Flugwetter auf Ihrem Mobiltelefon und Tablet.
Mit vielen Funktionen, die auf der Website nicht verfügbar sind, wie Offline-Unterstützung und eine persönliche Flughafenliste.

Wir und Dritte verfolgen dein Internetverhalten auf unserer Website mit Cookies. Wenn du fortfährst, gehen wir davon aus, dass du mit unserer Cookie-Richtlinie einverstanden bist. Mehr erfahren